• Join FlightAware (Why Join?)
  • Login
  • US Flag 
07:06AM EDT


 

Airport Tracker/Info


-or-


 

Live Flight TrackerFlight Track Log ✈ VH-CRQ ✈ 26-Jul-2013 ✈ YPPH / PER - VHHH / HKG

Flight Track Log - Related Links

Times and Time Zones

All times are in EDT time to prevent confusion due to time zone crossing. See the VH-CRQ flight status page for this flight to view local times or setup timezone preferences in your user account.

Time Position Orientation Groundspeed Altitude Reporting Facility
EDT Latitude Longitude Course Direction KTS MPH feet Rate Location/Type
11:23AM -31.9290 115.9700 284° West 13 15  Level FlightAware
11:24AM -31.9290 115.9690 270° West 11 13 420 Level FlightAware
11:24AM -31.9290 115.9680 270° West 2 2 480 Level FlightAware
11:24AM -31.9320 115.9670 196° South 76 87 720 Level FlightAware
11:25AM -31.9402 115.9669 203° Southwest 6,700 1,380 Climbing Aus ATC (Calculated)
11:25AM -31.9500 115.9620 196° South 167 192 700 -8,100 Descending FlightAware
11:25AM -31.9760 115.9550 193° South 188 216 2,000 2,280 Climbing FlightAware
11:26AM -31.9950 115.9490 195° South 222 255 2,600 2,220 Climbing FlightAware
11:26AM -32.0090 115.9400 209° Southwest 222 255 3,300 3,000 Climbing FlightAware
11:26AM -32.0190 115.9260 230° Southwest 226 260 4,100 3,360 Climbing FlightAware
11:27AM -32.0240 115.9080 252° West 227 261 5,000 3,180 Climbing FlightAware
11:27AM -32.0210 115.8790 277° West 230 265 6,300 3,060 Climbing FlightAware
11:27AM -32.0150 115.8440 281° West 237 273 7,900 3,240 Climbing FlightAware
11:28AM -32.0030 115.8210 302° West 250 288 8,900 3,300 Climbing FlightAware
11:28AM -31.9920 115.8120 325° Northwest 262 302 9,500 2,400 Climbing FlightAware
11:29AM -31.9420 115.7850 335° Northwest 297 342 11,000 2,580 Climbing FlightAware
11:29AM -31.8940 115.7600 336° Northwest 304 350 12,900 3,000 Climbing FlightAware
11:30AM -31.8500 115.7250 326° Northwest 297 342 14,900 2,940 Climbing FlightAware
11:31AM -31.7840 115.6690 324° Northwest 300 345 17,700 2,100 Climbing FlightAware
11:31AM -31.7460 115.6340 322° Northwest 293 337 18,100 720 Climbing FlightAware
11:32AM -31.6980 115.6090 336° Northwest 339 390 18,600 1,200 Climbing FlightAware
11:33AM -31.6350 115.5880 344° North 354 407 19,600 1,620 Climbing FlightAware
11:33AM -31.5696 115.5654 344° North 368 423 20,800 2,100 Climbing Aus ATC (RADAR)
11:33AM -31.5620 115.5630 344° North 369 425 21,200 2,820 Climbing FlightAware
11:34AM -31.5330 115.5600 355° North 400 460 21,800 1,620 Climbing FlightAware
11:34AM -31.4577 115.5723 355° North 415 478 22,700 1,620 Climbing Aus ATC (RADAR)
11:34AM -31.4570 115.5720 355° North 423 487 22,900 2,160 Climbing FlightAware
11:35AM -31.3770 115.5830 North 434 499 24,200 1,920 Climbing FlightAware
11:36AM -31.2860 115.5950 North 433 498 25,700 2,040 Climbing FlightAware
11:36AM -31.2060 115.6060 North 434 499 27,100 1,860 Climbing FlightAware
11:37AM -31.1961 115.6063 North 443 510 27,100 1,800 Level Aus ATC (RADAR)
11:37AM -31.1230 115.6160 North 439 505 28,300 1,500 Climbing FlightAware
11:38AM -31.0380 115.6270 North 453 521 29,000 1,020 Climbing FlightAware
11:38AM -30.9530 115.6370 North 471 542 29,700 1,380 Climbing FlightAware
11:39AM -30.8590 115.6510 North 468 539 31,000 1,440 Climbing FlightAware
11:40AM -30.7610 115.6720 10° North 478 550 31,900 1,080 Climbing FlightAware
11:41AM -30.6630 115.6950 11° North 477 549 32,700 1,020 Climbing FlightAware
11:41AM -30.5860 115.7120 11° North 474 545 33,300 720 Climbing FlightAware
11:42AM -30.4990 115.7303 11° North 486 559 33,600 660 Climbing Aus ATC (RADAR)
11:42AM -30.4870 115.7350 11° North 491 565 33,800 1,800 Climbing FlightAware
11:43AM -30.3870 115.7580 11° North 473 544 35,200 1,440 Climbing FlightAware
11:44AM -30.2890 115.7800 11° North 474 545 36,000 840 Climbing FlightAware
11:44AM -30.2142 115.7955 11° North 482 555 36,300 840 Climbing Aus ATC (RADAR)
11:44AM -30.2200 115.7960 11° North 475 547 36,500 180 Climbing FlightAware
11:45AM -30.1260 115.8170 11° North 475 547 36,500 900 Level FlightAware
11:45AM -30.0829 115.8246 11° North 483 556 37,400 1,860 Climbing Aus ATC (RADAR)
11:46AM -29.9720 115.8520 11° North 475 547 38,400 900 Climbing FlightAware
11:46AM -29.9407 115.8566 11° North 479 551 38,400 900 Level Aus ATC (RADAR)
11:47AM -29.8930 115.8700 11° North 474 545 39,000 900 Climbing FlightAware
11:47AM -29.7985 115.8891 11° North 481 554 39,400 300 Climbing Aus ATC (RADAR)
11:47AM -29.7930 115.8930 11° North 474 545 39,300 -180 Descending FlightAware
11:48AM -29.7280 115.9070 11° North 474 545 39,300 720 Level FlightAware
11:48AM -29.6658 115.9194 11° North 488 562 39,900  Climbing Aus ATC (RADAR)
11:49AM -29.6400 115.9270 11° North 474 545 39,300 -540 Descending FlightAware
11:49AM -29.5720 115.9420 11° North 474 545 39,300  Level FlightAware
11:50AM -29.4880 115.9610 11° North 474 545 39,300  Level FlightAware
11:51AM -29.4200 115.9760 11° North 474 545 39,300 420 Level FlightAware
11:51AM -29.2351 116.0140 11° North 504 580 39,800 480 Climbing Aus ATC (RADAR)
11:52AM -29.2200 116.0180 11° North 40,000 240 Climbing FlightAware
11:52AM -29.0901 116.0157 11° North 476 548 40,100  Climbing Aus ATC (RADAR)
11:53AM -29.0880 116.0160 11° North 470 541 40,000 -180 Descending FlightAware
11:53AM -28.9870 116.0090 357° North 480 552 40,000  Level FlightAware
11:54AM -28.9070 116.0040 357° North 482 555 40,000 60 Level FlightAware
11:55AM -28.8120 115.9912 357° North 481 554 40,100  Climbing Aus ATC (RADAR)
11:55AM -28.8290 115.9980 357° North 482 555 40,000 -120 Descending FlightAware
11:55AM -28.7360 115.9910 356° North 482 555 40,000  Level FlightAware
11:56AM -28.6680 115.9850 356° North 482 555 40,000 60 Level FlightAware
11:57AM -28.5127 115.9677 356° North 475 547 40,100  Climbing Aus ATC (RADAR)
11:57AM -28.5760 115.9780 356° North 482 555 40,000 -180 Descending FlightAware
11:57AM -28.5070 115.9730 356° North 482 555 40,000  Level FlightAware
11:58AM -28.4170 115.9650 356° North 482 555 40,000  Level FlightAware
11:59AM -28.3490 115.9600 356° North 482 555 40,000  Level FlightAware
11:59AM -28.2810 115.9550 356° North 482 555 40,000 60 Level FlightAware
12:00PM -28.0955 115.9432 356° North 470 541 40,100  Climbing Aus ATC (RADAR)
12:00PM -28.1900 115.9470 356° North 482 555 40,000 -120 Descending FlightAware
12:01PM -28.1220 115.9420 356° North 482 555 40,000  Level FlightAware
12:01PM -28.0500 115.9360 356° North 482 555 40,000  Level FlightAware
12:02PM -27.9820 115.9310 356° North 482 555 40,000 120 Level FlightAware
12:02PM -27.8125 115.9252 356° North 468 539 40,100  Climbing Aus ATC (RADAR)
12:03PM -27.8910 115.9240 356° North 482 555 40,000 -120 Descending FlightAware
12:04PM -27.6360 115.9220 360° North 472 543 40,000  Level FlightAware
12:04PM -27.5460 115.9150 360° North 473 544 40,000 120 Level FlightAware
12:04PM -27.5293 115.9051 360° North 471 542 40,100  Climbing Aus ATC (RADAR)
12:05PM -27.4510 115.9100 357° North 473 544 40,000 -120 Descending FlightAware
12:06PM -27.3640 115.9040 356° North 474 545 40,000 60 Level FlightAware
12:06PM -27.2666 115.8943 356° North 474 545 40,100  Climbing Aus ATC (RADAR)
12:06PM -27.2470 115.8970 356° North 478 550 40,000 -120 Descending FlightAware
12:07PM -27.1490 115.8910 357° North 477 549 40,000  Level FlightAware
12:08PM -27.0640 115.8860 357° North 476 548 40,000  Level FlightAware
12:08PM -26.9800 115.8800 356° North 477 549 40,000  Level FlightAware
12:09PM -26.8880 115.8750 357° North 478 550 40,000  Level FlightAware
12:10PM -26.7980 115.8690 357° North 478 550 40,000  Level FlightAware
12:11PM -26.7050 115.8630 357° North 478 550 40,000  Level FlightAware
12:11PM -26.6030 115.8570 357° North 478 550 40,000  Level FlightAware
12:12PM -26.5110 115.8510 357° North 479 551 40,000  Level FlightAware
12:13PM -26.4570 115.8480 357° North 479 551 40,000  Level FlightAware
12:13PM -26.3410 115.8400 356° North 476 548 40,000 60 Level FlightAware
12:14PM -26.2639 115.8406 356° North 469 540 40,100  Climbing Aus ATC (RADAR)
12:14PM -26.2620 115.8350 356° North 477 549 40,000 -180 Descending FlightAware
12:15PM -26.1580 115.8290 357° North 471 542 40,000  Level FlightAware
12:15PM -26.0690 115.8240 357° North 464 534 40,000 60 Level FlightAware
12:16PM -25.9927 115.8224 357° North 458 527 40,100  Climbing Aus ATC (RADAR)
12:16PM -26.0020 115.8180 357° North 464 534 40,000 -120 Descending FlightAware
12:17PM -25.9130 115.8110 356° North 464 534 40,000  Level FlightAware
12:17PM -25.8020 115.8070 358° North 462 532 40,000 360 Level FlightAware
12:18PM -25.7142 115.8037 358° North 455 524 40,500  Climbing Aus ATC (RADAR)
12:18PM -25.7160 115.8000 358° North 462 532 40,000 240 Descending FlightAware
12:19PM -25.6200 115.7960 358° North 455 524 40,700 540 Climbing FlightAware
12:19PM -25.5380 115.7910 357° North 459 528 40,700 120 Level FlightAware
12:20PM -25.4509 115.7884 357° North 451 519 40,900 300 Climbing Aus ATC (RADAR)
12:20PM -25.4110 115.7830 357° North 458 527 41,000 180 Climbing FlightAware
12:21PM -25.3237 115.7801 357° North 451 519 41,100  Climbing Aus ATC (RADAR)
12:21PM -25.3220 115.7770 357° North 456 525 41,000 -180 Descending FlightAware
12:22PM -25.2410 115.7720 357° North 455 524 41,000  Level FlightAware
12:22PM -25.1570 115.7670 357° North 455 524 41,000  Level FlightAware
12:23PM -25.0730 115.7620 357° North 456 525 41,000  Level FlightAware
12:24PM -24.9880 115.7570 357° North 457 526 41,000 60 Level FlightAware
12:24PM -24.9232 115.7552 357° North 449 517 41,100  Climbing Aus ATC (RADAR)
12:25PM -24.8900 115.7510 357° North 459 528 41,000 -120 Descending FlightAware
12:25PM -24.8060 115.7460 357° North 462 532 41,000  Level FlightAware
12:26PM -24.7220 115.7410 357° North 464 534 41,000 60 Level FlightAware
12:26PM -24.6549 115.7381 357° North 459 528 41,100  Climbing Aus ATC (RADAR)
12:27PM -24.6210 115.7350 357° North 465 535 41,000 -120 Descending FlightAware
12:27PM -24.5330 115.7290 356° North 464 534 41,000  Level FlightAware
12:28PM -24.4390 115.7240 357° North 462 532 41,000  Level FlightAware
12:29PM -24.3500 115.7180 356° North 460 529 41,000  Level FlightAware
12:29PM -24.2600 115.7130 357° North 460 529 41,000  Level FlightAware
12:30PM -24.1710 115.7070 356° North 460 529 41,000  Level FlightAware
12:31PM -24.0940 115.7030 357° North 461 531 41,000  Level FlightAware
12:32PM -23.9940 115.6970 357° North 463 533 41,000  Level FlightAware
12:32PM -23.9000 115.6910 357° North 466 536 41,000  Level FlightAware
12:33PM -23.8170 115.6860 357° North 468 539 41,000  Level FlightAware
12:34PM -23.7240 115.6800 357° North 468 539 41,000  Level FlightAware
12:34PM -23.6490 115.6760 357° North 468 539 41,000 60 Level FlightAware
12:35PM -23.5697 115.6712 357° North 462 532 41,100  Climbing Aus ATC (RADAR)
12:35PM -23.5550 115.6700 357° North 464 534 41,000 -120 Descending FlightAware
12:36PM -23.4620 115.6650 357° North 465 535 41,000  Level FlightAware
12:36PM -23.3870 115.6600 356° North 464 534 41,000  Level FlightAware
12:37PM -23.3010 115.6550 356° North 465 535 41,000 120 Level FlightAware
12:37PM -23.2917 115.6545 356° North 452 520 41,100  Climbing Aus ATC (RADAR)
12:38PM -23.2070 115.6500 357° North 465 535 41,000 -120 Descending FlightAware
12:38PM -23.1190 115.6440 356° North 465 535 41,000  Level FlightAware
12:39PM -23.0250 115.6390 356° North 466 536 41,000 120 Level FlightAware
12:39PM -23.0215 115.6385 356° North 459 528 41,100  Climbing Aus ATC (RADAR)
12:40PM -22.9350 115.6330 356° North 466 536 41,000 -120 Descending FlightAware
12:40PM -22.8490 115.6280 357° North 465 535 41,000  Level FlightAware
12:41PM -22.7510 115.6230 357° North 464 534 41,000  Level FlightAware
12:42PM -22.6760 115.6170 356° North 464 534 41,000  Level FlightAware
12:43PM -22.5490 115.6100 357° North 465 535 41,000 60 Level FlightAware
12:43PM -22.4741 115.6054 357° North 458 527 41,100  Climbing Aus ATC (RADAR)
12:43PM -22.4830 115.6050 357° North 465 535 41,000 -180 Descending FlightAware
12:44PM -22.4140 115.6000 356° North 465 535 41,000  Level FlightAware
12:45PM -22.3300 115.5930 356° North 465 535 41,000 60 Level FlightAware
12:45PM -22.1910 115.5881 356° North 463 533 41,100  Climbing Aus ATC (RADAR)
12:46PM -22.2420 115.5870 356° North 465 535 41,000 -180 Descending FlightAware
12:46PM -22.1730 115.5810 355° North 465 535 41,000  Level FlightAware
12:47PM -22.1070 115.5770 357° North 465 535 41,000 60 Level FlightAware
12:48PM -21.9047 115.5707 357° North 462 532 41,100  Climbing Aus ATC (RADAR)
12:48PM -22.0160 115.5700 357° North 465 535 41,000 -180 Descending FlightAware
12:48PM -21.9500 115.5650 356° North 465 535 41,000  Level FlightAware
12:49PM -21.8850 115.5600 356° North 465 535 41,000  Level FlightAware
12:50PM -21.7970 115.5530 356° North 465 535 41,000 60 Level FlightAware
12:50PM -21.6306 115.5545 356° North 459 528 41,100  Climbing Aus ATC (RADAR)
12:50PM -21.7310 115.5480 356° North 465 535 41,000  Descending FlightAware
12:51PM -21.4879 115.5459 356° North 462 532 41,100  Climbing Aus ATC (RADAR)
12:51PM -21.6460 115.5420 356° North 465 535 41,000 -120 Descending FlightAware
12:52PM -21.5820 115.5370 356° North 465 535 41,000 120 Level FlightAware
12:52PM -21.3551 115.5383 356° North 465 535 41,100 60 Climbing Aus ATC (RADAR)
12:53PM -21.2108 115.5305 356° North 465 535 41,100 -60 Level Aus ATC (RADAR)
12:54PM -21.0890 115.5250 356° North 470 541 41,000 -120 Descending FlightAware
12:54PM -21.0030 115.5200 357° North 468 539 41,000  Level FlightAware
12:55PM -20.9050 115.5150 357° North 466 536 41,000  Level FlightAware
12:56PM -20.8140 115.5100 357° North 467 537 41,000  Level FlightAware
12:57PM -20.7220 115.5040 357° North 468 539 41,000  Level FlightAware
12:57PM -20.6480 115.5000 357° North 468 539 41,000 120 Level FlightAware
12:57PM -20.6470 115.4983 357° North 455 524 41,100  Climbing Aus ATC (RADAR)
12:58PM -20.5520 115.4950 357° North 469 540 41,000 -120 Descending FlightAware
12:59PM -20.4780 115.4900 356° North 470 541 41,000  Level FlightAware
12:59PM -20.4000 115.4850 357° North 470 541 41,000  Level FlightAware
01:00PM -20.3340 115.4800 356° North 470 541 41,000 60 Level FlightAware
01:00PM -20.2343 115.4727 356° North 457 526 41,100  Climbing Aus ATC (RADAR)
01:00PM -20.2660 115.4750 356° North 470 541 41,000 -120 Descending FlightAware
01:01PM -20.1760 115.4680 356° North 470 541 41,000  Level FlightAware
01:02PM -20.1070 115.4630 356° North 470 541 41,000 840 Level FlightAware
01:02PM -19.9655 115.4558 356° North 450 518 42,000  Climbing Aus ATC (RADAR)
01:03PM -20.0190 115.4560 356° North 470 541 41,000 360 Descending FlightAware
01:04PM -19.8258 115.4490 356° North 450 518 42,400  Climbing Aus ATC (RADAR)
01:04PM -19.9120 115.4480 356° North 470 541 41,000 -1,860 Descending FlightAware
01:04PM -19.8440 115.4430 356° North 470 541 41,000  Level FlightAware
01:05PM -19.7750 115.4380 356° North 470 541 41,000  Level FlightAware
01:06PM -19.7090 115.4330 356° North 470 541 41,000  Level FlightAware
01:06PM -19.6410 115.4280 356° North 470 541 41,000  Level FlightAware
01:07PM -19.5520 115.4220 356° North 470 541 41,000  Level FlightAware
01:07PM -19.3736 115.4249 185° South 43,000  Climbing Aus ATC (Calculated)
01:08PM -19.4710 115.4160 356° North 470 541 41,000 -1,740 Descending FlightAware
01:08PM -19.4050 115.4110 356° North 470 541 41,000  Level FlightAware
01:09PM -19.0591 115.4094 358° North 43,000  Climbing Aus ATC (Calculated)
01:11PM -18.9865 115.4066 358° North  Level Estimated
01:11PM -18.8423 115.3979 358° North 43,000  Level Aus ATC (Calculated)
01:11PM -18.8423 115.3979 358° North 43,000  Level Aus ATC (Calculated)
01:13PM -18.7679 115.3950 358° North  Level Estimated
01:14PM -18.7141 115.3930 358° North  Level Estimated
01:15PM -18.6604 115.3909 358° North  Level Estimated
01:15PM -18.4268 115.3748 358° North 43,000  Level Aus ATC (Calculated)
01:16PM -18.3730 115.3727 358° North  Level Estimated
01:16PM -18.2153 115.3631 358° North 43,000  Level Aus ATC (Calculated)
01:17PM -18.1162 115.3576 358° North 43,000  Level Aus ATC (Calculated)
01:19PM -18.0471 115.3550 358° North  Level Estimated
01:20PM -17.9934 115.3530 358° North  Level Estimated
01:21PM -17.9396 115.3510 358° North  Level Estimated
01:21PM -17.6360 115.3311 359° North 43,000  Level Aus ATC (Calculated)
01:23PM -17.5562 115.3281 358° North  Level Estimated
01:24PM -17.5024 115.3261 358° North  Level Estimated
01:25PM -17.4487 115.3241 358° North  Level Estimated
01:25PM -17.1497 115.3045 359° North 43,000  Level Aus ATC (Calculated)
01:26PM -17.3949 115.3221 358° North  Level Estimated
01:27PM -17.0565 115.3010 358° North  Level Estimated
01:28PM -17.0028 115.2990 358° North  Level Estimated
01:28PM -16.7546 115.2829 359° North 43,000  Level Aus ATC (Calculated)
01:28PM -16.7546 115.2829 359° North 43,000  Level Aus ATC (Calculated)
01:30PM -16.6614 115.2795 358° North  Level Estimated
01:31PM -16.6076 115.2776 358° North  Level Estimated
01:32PM -16.5538 115.2756 358° North  Level Estimated
01:33PM -16.5001 115.2736 358° North  Level Estimated
01:33PM -16.1125 115.2481 359° North 43,000  Level Aus ATC (Calculated)
01:33PM -16.1125 115.2481 359° North 43,000  Level Aus ATC (Calculated)
01:34PM -16.0587 115.2461 358° North  Level Estimated
01:35PM -16.0049 115.2442 358° North  Level Estimated
01:36PM -15.9512 115.2423 358° North  Level Estimated
01:37PM -15.8974 115.2403 358° North  Level Estimated
01:38PM -15.8436 115.2384 358° North  Level Estimated
01:39PM -15.7898 115.2365 358° North  Level Estimated
01:40PM -15.7360 115.2346 358° North  Level Estimated
01:41PM -15.6823 115.2326 358° North  Level Estimated
01:41PM -15.0422 115.1905 360° North 43,000  Level Aus ATC (Calculated)
01:43PM -14.9427 115.1870 358° North  Level Estimated
01:44PM -14.8889 115.1851 358° North  Level Estimated
01:45PM -14.8351 115.1832 358° North  Level Estimated
01:45PM -14.5330 115.1633 360° North 43,000  Level Aus ATC (Calculated)
01:47PM -14.4264 115.1596 358° North  Level Estimated
01:47PM -14.2502 115.1482 360° North 43,000  Level Aus ATC (Calculated)
01:48PM -14.1964 115.1464 358° North  Level Estimated
01:48PM -14.1370 115.1422 360° North 43,000  Level Aus ATC (Calculated)
01:49PM -14.0035 115.1427 360° North 43,000  Level Aus ATC (Calculated)
01:50PM -13.9497 115.1409 358° North  Level Estimated
01:51PM -13.8959 115.1390 358° North  Level Estimated
01:52PM -13.8421 115.1372 358° North  Level Estimated
01:53PM -13.7883 115.1353 358° North  Level Estimated
01:53PM -13.4025 115.1451 360° North 43,000  Level Aus ATC (Calculated)
01:54PM -13.7346 115.1335 358° North  Level Estimated
01:55PM -13.3236 115.1424 358° North  Level Estimated
01:56PM -13.2698 115.1405 358° North  Level Estimated
01:57PM -13.2160 115.1386 358° North  Level Estimated
01:58PM -13.1622 115.1367 358° North  Level Estimated
01:58PM -12.7346 115.1478 360° North 43,000  Level Aus ATC (Calculated)
01:59PM -12.6679 115.1481 360° North 43,000  Level Aus ATC (Calculated)
02:00PM -12.6141 115.1461 358° North  Level Estimated
02:01PM -12.5603 115.1442 358° North  Level Estimated
02:01PM -12.4007 115.1491 360° North 43,000  Level Aus ATC (Calculated)
02:01PM -12.2671 115.1496 360° North 43,000  Level Aus ATC (Calculated)
02:02PM -12.3469 115.1472 358° North  Level Estimated
02:03PM -12.2932 115.1453 358° North  Level Estimated
02:03PM -12.0000 115.1507 360° North 43,000  Level Aus ATC (Calculated)
02:04PM -12.1560 115.1457 358° North  Level Estimated
02:05PM -11.9426 115.1486 358° North  Level Estimated
02:05PM -11.8155 115.1513 360° North 43,000  Level Aus ATC (Calculated)
02:06PM -11.8889 115.1467 358° North  Level Estimated
02:06PM -11.6311 115.1519 360° North 43,000  Level Aus ATC (Calculated)
02:07PM -11.7501 115.1489 358° North  Level Estimated
02:08PM -11.5719 115.1497 358° North  Level Estimated
02:09PM -11.5181 115.1478 358° North  Level Estimated
02:10PM -11.4644 115.1458 358° North  Level Estimated
02:11PM -11.4106 115.1439 358° North  Level Estimated
02:12PM -11.3568 115.1419 358° North  Level Estimated
02:13PM -11.3031 115.1399 358° North  Level Estimated
02:14PM -11.2493 115.1380 358° North  Level Estimated
02:14PM -10.7690 115.1550 358° North 467 537 43,000  Level FlightAware
02:15PM -11.1955 115.1360 358° North  Level Estimated
02:15PM -10.6850 115.1550 360° North 468 539 43,000  Level FlightAware
02:15PM -10.5950 115.1560 North 469 540 43,000  Level FlightAware
02:16PM -10.5130 115.1560 360° North 469 540 43,000  Level FlightAware
02:17PM -10.4270 115.1560 360° North 469 540 43,000  Level FlightAware
02:17PM -10.3310 115.1570 North 469 540 43,000  Level FlightAware
02:17PM -10.2419 115.1573 181° South 43,000  Level Aus ATC (Calculated)
02:18PM -10.2560 115.1570 360° North 469 540 43,000  Level FlightAware
02:19PM -10.1560 115.1570 360° North 468 539 43,000  Level FlightAware
02:19PM -10.0730 115.1580 North 469 540 43,000  Level FlightAware
02:20PM -9.9830 115.1580 360° North 467 537 43,000  Level FlightAware
02:21PM -9.8910 115.1580 360° North 466 536 43,000  Level FlightAware
02:21PM -9.8020 115.1590 North 467 537 43,000  Level FlightAware
02:22PM -9.7050 115.1590 360° North 468 539 43,000  Level FlightAware
02:23PM -9.6270 115.1590 360° North 469 540 43,000  Level FlightAware
02:23PM -9.5480 115.1600 North 468 539 43,000  Level FlightAware
02:24PM -9.4540 115.1600 360° North 467 537 43,000  Level FlightAware
02:25PM -9.3000 115.1611 180° South 43,000  Level Aus ATC (Calculated)
02:25PM -9.3630 115.1610 360° North 466 536 43,000  Level FlightAware
02:25PM -9.2800 115.1610 360° North 465 535 43,000  Level FlightAware
02:26PM -9.1940 115.1610 360° North 466 536 43,000  Level FlightAware
02:27PM -9.1000 115.1620 North 465 535 43,000  Level FlightAware
02:28PM -9.0040 115.1620 360° North 465 535 43,000  Level FlightAware
02:28PM -8.9140 115.1620 360° North 466 536 43,000  Level FlightAware
02:29PM -8.8270 115.1630 North 467 537 43,000  Level FlightAware
02:30PM -8.7350 115.1620 359° North 470 541 43,000  Level FlightAware
02:30PM -8.6440 115.1580 358° North 471 542 43,000  Level FlightAware
02:31PM -8.5490 115.1540 358° North 470 541 43,000  Level FlightAware
02:32PM -8.4600 115.1510 358° North 470 541 43,000  Level FlightAware
02:32PM -8.3740 115.1470 357° North 470 541 43,000  Level FlightAware
02:33PM -8.2810 115.1430 358° North 471 542 43,000  Level FlightAware
02:34PM -8.1930 115.1390 357° North 473 544 43,000  Level FlightAware
02:34PM -8.1060 115.1360 358° North 474 545 43,000  Level FlightAware
02:35PM -8.0180 115.1320 357° North 474 545 43,000  Level FlightAware
02:36PM -7.9280 115.1280 357° North 474 545 43,000  Level FlightAware
02:37PM -7.8380 115.1240 357° North 474 545 43,000  Level FlightAware
02:37PM -7.7410 115.1200 358° North 474 545 43,000  Level FlightAware
02:38PM -7.6450 115.1160 358° North 473 544 43,000  Level FlightAware
02:39PM -7.5550 115.1120 357° North 473 544 43,000  Level FlightAware
02:39PM -7.4640 115.1080 358° North 471 542 43,000  Level FlightAware
02:40PM -7.3720 115.1040 358° North 470 541 43,000  Level FlightAware
02:41PM -7.2890 115.1010 358° North 468 539 43,000  Level FlightAware
02:41PM -7.1860 115.0970 358° North 468 539 43,000  Level FlightAware
02:42PM -7.0930 115.0930 358° North 468 539 43,000  Level FlightAware
02:43PM -7.0080 115.0890 357° North 467 537 43,000  Level FlightAware
02:44PM -6.9110 115.0850 358° North 467 537 43,000  Level FlightAware
02:44PM -6.8300 115.0820 358° North 468 539 43,000  Level FlightAware
02:45PM -6.7350 115.0760 356° North 467 537 43,000  Level FlightAware
02:46PM -6.6460 115.0710 357° North 467 537 43,000  Level FlightAware
02:46PM -6.5690 115.0670 357° North 466 536 43,000  Level FlightAware
02:47PM -6.4730 115.0620 357° North 465 535 43,000  Level FlightAware
02:48PM -6.3830 115.0560 356° North 465 535 43,000  Level FlightAware
02:49PM -6.2640 115.0500 357° North 467 537 43,000  Level FlightAware
02:50PM -6.1520 115.0430 356° North 468 539 43,000  Level FlightAware
02:50PM -6.0860 115.0380 356° North 468 539 43,000  Level FlightAware
02:51PM -5.9540 115.0290 356° North 468 539 43,000  Level FlightAware
02:52PM -5.8900 115.0240 356° North 468 539 43,000  Level FlightAware
02:53PM -5.8030 115.0180 356° North 468 539 43,000  Level FlightAware
02:53PM -5.7350 115.0140 357° North 468 539 43,000  Level FlightAware
02:54PM -5.6670 115.0090 356° North 468 539 43,000  Level FlightAware
02:55PM -5.5370 115.0000 356° North 468 539 43,000  Level FlightAware
02:56PM -5.4710 114.9950 356° North 468 539 43,000  Level FlightAware
02:56PM -5.3850 114.9890 356° North 468 539 43,000  Level FlightAware
02:57PM -5.2740 114.9810 356° North 468 539 43,000  Level FlightAware
02:58PM -5.2080 114.9770 357° North 468 539 43,000  Level FlightAware
02:59PM -5.1420 114.9720 356° North 468 539 43,000  Level FlightAware
03:01PM -5.0434 114.9683 358° North  Level Estimated
03:02PM -4.9896 114.9663 358° North  Level Estimated
03:03PM -4.9359 114.9643 358° North  Level Estimated
03:04PM -4.8821 114.9623 358° North  Level Estimated
03:05PM -4.8283 114.9603 358° North  Level Estimated
03:06PM -4.7746 114.9583 358° North  Level Estimated
03:07PM -4.7208 114.9563 358° North  Level Estimated
03:08PM -4.6670 114.9543 358° North  Level Estimated
03:09PM -4.6133 114.9523 358° North  Level Estimated
03:10PM -4.5595 114.9503 358° North  Level Estimated
03:11PM -4.5057 114.9483 358° North  Level Estimated
03:12PM -4.4520 114.9463 358° North  Level Estimated
03:13PM -4.3982 114.9443 358° North  Level Estimated
03:14PM -4.3444 114.9423 358° North  Level Estimated
03:15PM -4.2906 114.9404 358° North  Level Estimated
03:16PM -4.2369 114.9384 358° North  Level Estimated
03:17PM -4.1831 114.9364 358° North  Level Estimated
03:18PM -4.1293 114.9344 358° North  Level Estimated
03:19PM -4.0756 114.9324 358° North  Level Estimated
03:20PM -4.0218 114.9304 358° North  Level Estimated
03:21PM -3.9680 114.9284 358° North  Level Estimated
03:22PM -3.9142 114.9264 358° North  Level Estimated
03:23PM -3.8605 114.9244 358° North  Level Estimated
03:24PM -3.8067 114.9224 358° North  Level Estimated
03:25PM -3.7529 114.9204 358° North  Level Estimated
03:26PM -3.6992 114.9185 358° North  Level Estimated
03:27PM -3.6454 114.9165 358° North  Level Estimated
03:28PM -3.5916 114.9145 358° North  Level Estimated
03:29PM -3.5379 114.9125 358° North  Level Estimated
03:30PM -3.4841 114.9105 358° North  Level Estimated
03:31PM -3.4303 114.9085 358° North  Level Estimated
03:32PM -3.3765 114.9065 358° North  Level Estimated
03:33PM -3.3228 114.9045 358° North  Level Estimated
03:34PM -3.2690 114.9025 358° North  Level Estimated
03:35PM -3.2152 114.9006 358° North  Level Estimated
03:36PM -3.1615 114.8986 358° North  Level Estimated
03:37PM -3.1077 114.8966 358° North  Level Estimated
03:38PM -3.0539 114.8946 358° North  Level Estimated
03:39PM -3.0002 114.8926 358° North  Level Estimated
03:40PM -2.9464 114.8906 358° North  Level Estimated
03:41PM -2.8926 114.8886 358° North  Level Estimated
03:42PM -2.8389 114.8866 358° North  Level Estimated
03:43PM -2.7851 114.8846 358° North  Level Estimated
03:44PM -2.7313 114.8826 358° North  Level Estimated
03:45PM -2.6775 114.8807 358° North  Level Estimated
03:46PM -2.6238 114.8787 358° North  Level Estimated
03:47PM -2.5700 114.8767 358° North  Level Estimated
03:48PM -2.5162 114.8747 358° North  Level Estimated
03:49PM -2.4625 114.8727 358° North  Level Estimated
03:50PM -2.4087 114.8707 358° North  Level Estimated
03:51PM -2.3549 114.8687 358° North  Level Estimated
03:52PM -2.3012 114.8667 358° North  Level Estimated
03:53PM -2.2474 114.8647 358° North  Level Estimated
03:54PM -2.1936 114.8627 358° North  Level Estimated
03:55PM -2.1398 114.8607 358° North  Level Estimated
03:56PM -2.0861 114.8588 358° North  Level Estimated
03:57PM -2.0323 114.8568 358° North  Level Estimated
03:58PM -1.9785 114.8548 358° North  Level Estimated
03:59PM -1.9248 114.8528 358° North  Level Estimated
04:00PM -1.8710 114.8508 358° North  Level Estimated
04:01PM -1.8172 114.8488 358° North  Level Estimated
04:02PM -1.7635 114.8468 358° North  Level Estimated
04:03PM -1.7097 114.8448 358° North  Level Estimated
04:04PM -1.6559 114.8428 358° North  Level Estimated
04:05PM -1.6021 114.8409 358° North  Level Estimated
04:06PM -1.5484 114.8389 358° North  Level Estimated
04:07PM -1.4946 114.8369 358° North  Level Estimated
04:08PM -1.4408 114.8349 358° North  Level Estimated
04:09PM -1.3871 114.8329 358° North  Level Estimated
04:10PM -1.3333 114.8310 358° North  Level Estimated
04:11PM -1.2795 114.8290 358° North  Level Estimated
04:12PM -1.2257 114.8270 358° North  Level Estimated
04:13PM -1.1720 114.8250 358° North  Level Estimated
04:14PM -1.1182 114.8230 358° North  Level Estimated
04:15PM -1.0644 114.8211 358° North  Level Estimated
04:16PM -1.0107 114.8191 358° North  Level Estimated
04:17PM -0.9569 114.8171 358° North  Level Estimated
04:18PM -0.9031 114.8151 358° North  Level Estimated
04:19PM -0.8494 114.8131 358° North  Level Estimated
04:20PM -0.7956 114.8112 358° North  Level Estimated
04:21PM -0.7418 114.8092 358° North  Level Estimated
04:22PM -0.6880 114.8072 358° North  Level Estimated
04:23PM -0.6343 114.8052 358° North  Level Estimated
04:24PM -0.5805 114.8032 358° North  Level Estimated
04:25PM -0.5267 114.8013 358° North  Level Estimated
04:26PM -0.4730 114.7993 358° North  Level Estimated
04:27PM -0.4192 114.7973 358° North  Level Estimated
04:28PM -0.3654 114.7953 358° North  Level Estimated
04:29PM -0.3117 114.7933 358° North  Level Estimated
04:30PM -0.2579 114.7914 358° North  Level Estimated
04:31PM -0.2041 114.7894 358° North  Level Estimated
04:32PM -0.1504 114.7874 358° North  Level Estimated
04:33PM -0.0966 114.7854 358° North  Level Estimated
04:34PM -0.0428 114.7834 358° North  Level Estimated
04:35PM 0.0110 114.7815 358° North  Level Estimated
04:36PM 0.0647 114.7795 358° North  Level Estimated
04:37PM 0.1185 114.7775 358° North  Level Estimated
04:38PM 0.1723 114.7755 358° North  Level Estimated
04:39PM 0.2260 114.7735 358° North  Level Estimated
04:40PM 0.2798 114.7716 358° North  Level Estimated
04:41PM 0.3336 114.7696 358° North  Level Estimated
04:42PM 0.3873 114.7676 358° North  Level Estimated
04:43PM 0.4411 114.7656 358° North  Level Estimated
04:44PM 0.4949 114.7636 358° North  Level Estimated
04:45PM 0.5487 114.7617 358° North  Level Estimated
04:46PM 0.6024 114.7597 358° North  Level Estimated
04:47PM 0.6562 114.7577 358° North  Level Estimated
04:48PM 0.7100 114.7557 358° North  Level Estimated
04:49PM 0.7637 114.7537 358° North  Level Estimated
04:50PM 0.8175 114.7518 358° North  Level Estimated
04:51PM 0.8713 114.7498 358° North  Level Estimated
04:52PM 0.9251 114.7478 358° North  Level Estimated
04:53PM 0.9788 114.7458 358° North  Level Estimated
04:54PM 1.0326 114.7438 358° North  Level Estimated
04:55PM 1.0864 114.7419 358° North  Level Estimated
04:56PM 1.1401 114.7399 358° North  Level Estimated
04:57PM 1.1939 114.7379 358° North  Level Estimated
04:58PM 1.2477 114.7359 358° North  Level Estimated
04:59PM 1.3014 114.7339 358° North  Level Estimated
05:00PM 1.3552 114.7320 358° North  Level Estimated
05:01PM 1.4090 114.7300 358° North  Level Estimated
05:02PM 1.4627 114.7280 358° North  Level Estimated
05:03PM 1.5165 114.7260 358° North  Level Estimated
05:04PM 1.5703 114.7240 358° North  Level Estimated
05:05PM 1.6241 114.7220 358° North  Level Estimated
05:06PM 1.6778 114.7200 358° North  Level Estimated
05:07PM 1.7316 114.7180 358° North  Level Estimated
05:08PM 1.7854 114.7160 358° North  Level Estimated
05:09PM 1.8391 114.7141 358° North  Level Estimated
05:10PM 1.8929 114.7121 358° North  Level Estimated
05:11PM 1.9467 114.7101 358° North  Level Estimated
05:12PM 2.0004 114.7081 358° North  Level Estimated
05:13PM 2.0542 114.7061 358° North  Level Estimated
05:14PM 2.1080 114.7041 358° North  Level Estimated
05:15PM 2.1618 114.7021 358° North  Level Estimated
05:16PM 2.2155 114.7001 358° North  Level Estimated
05:17PM 2.2693 114.6981 358° North  Level Estimated
05:18PM 2.3231 114.6962 358° North  Level Estimated
05:19PM 2.3768 114.6942 358° North  Level Estimated
05:20PM 2.4306 114.6922 358° North  Level Estimated
05:21PM 2.4844 114.6902 358° North  Level Estimated
05:22PM 2.5382 114.6882 358° North  Level Estimated
05:23PM 2.5919 114.6862 358° North  Level Estimated
05:24PM 2.6457 114.6842 358° North  Level Estimated
05:25PM 2.6995 114.6822 358° North  Level Estimated
05:26PM 2.7532 114.6802 358° North  Level Estimated
05:27PM 2.8070 114.6782 358° North  Level Estimated
05:28PM 2.8608 114.6762 358° North  Level Estimated
05:29PM 2.9145 114.6743 358° North  Level Estimated
05:30PM 2.9683 114.6723 358° North  Level Estimated
05:31PM 3.0221 114.6703 358° North  Level Estimated
05:32PM 3.0759 114.6683 358° North  Level Estimated
05:33PM 3.1296 114.6663 358° North  Level Estimated
05:34PM 3.1834 114.6643 358° North  Level Estimated
05:35PM 3.2372 114.6623 358° North  Level Estimated
05:36PM 3.2909 114.6603 358° North  Level Estimated
05:37PM 3.3447 114.6583 358° North  Level Estimated
05:38PM 3.3985 114.6563 358° North  Level Estimated
05:39PM 3.4522 114.6544 358° North  Level Estimated
05:40PM 3.5060 114.6524 358° North  Level Estimated
05:41PM 3.5598 114.6504 358° North  Level Estimated
05:42PM 3.6135 114.6484 358° North  Level Estimated
05:43PM 3.6673 114.6464 358° North  Level Estimated
05:44PM 3.7211 114.6444 358° North  Level Estimated
05:45PM 3.7749 114.6424 358° North  Level Estimated
05:46PM 3.8286 114.6404 358° North  Level Estimated
05:47PM 3.8824 114.6384 358° North  Level Estimated
05:48PM 3.9362 114.6365 358° North  Level Estimated
05:49PM 3.9899 114.6345 358° North  Level Estimated
05:50PM 4.0437 114.6325 358° North  Level Estimated
05:51PM 4.0975 114.6305 358° North  Level Estimated
05:52PM 4.1512 114.6285 358° North  Level Estimated
05:53PM 4.2050 114.6265 358° North  Level Estimated
05:54PM 4.2588 114.6245 358° North  Level Estimated
05:55PM 4.3126 114.6225 358° North  Level Estimated
05:56PM 4.3663 114.6205 358° North  Level Estimated
05:57PM 4.4201 114.6185 358° North  Level Estimated
05:58PM 4.4739 114.6165 358° North  Level Estimated
05:59PM 4.5276 114.6145 358° North  Level Estimated
06:00PM 4.5814 114.6125 358° North  Level Estimated
06:01PM 4.6352 114.6105 358° North  Level Estimated
06:02PM 4.6890 114.6085 358° North  Level Estimated
06:03PM 4.7427 114.6065 358° North  Level Estimated
06:04PM 4.7965 114.6045 358° North  Level Estimated
06:05PM 4.8503 114.6025 358° North  Level Estimated
06:06PM 4.9040 114.6005 358° North  Level Estimated
06:07PM 4.9578 114.5985 358° North  Level Estimated
06:08PM 5.0116 114.5965 358° North  Level Estimated
06:09PM 5.0653 114.5945 358° North  Level Estimated
06:10PM 5.1191 114.5925 358° North  Level Estimated
06:11PM 5.1729 114.5905 358° North  Level Estimated
06:12PM 5.2267 114.5885 358° North  Level Estimated
06:13PM 5.2804 114.5865 358° North  Level Estimated
06:14PM 5.3342 114.5845 358° North  Level Estimated
06:15PM 5.3880 114.5825 358° North  Level Estimated
06:16PM 5.4417 114.5805 358° North  Level Estimated
06:17PM 5.4955 114.5785 358° North  Level Estimated
06:18PM 5.5493 114.5765 358° North  Level Estimated
06:19PM 5.6030 114.5745 358° North  Level Estimated
06:20PM 5.6568 114.5725 358° North  Level Estimated
06:21PM 5.7106 114.5705 358° North  Level Estimated
06:22PM 5.7643 114.5685 358° North  Level Estimated
06:23PM 5.8181 114.5665 358° North  Level Estimated
06:24PM 5.8719 114.5645 358° North  Level Estimated
06:25PM 5.9257 114.5625 358° North  Level Estimated
06:26PM 5.9794 114.5605 358° North  Level Estimated
06:27PM 6.0332 114.5585 358° North  Level Estimated
06:28PM 6.0870 114.5565 358° North  Level Estimated
06:29PM 6.1407 114.5545 358° North  Level Estimated
06:30PM 6.1945 114.5525 358° North  Level Estimated
06:31PM 6.2483 114.5505 358° North  Level Estimated
06:32PM 6.3021 114.5484 358° North  Level Estimated
06:33PM 6.3558 114.5464 358° North  Level Estimated
06:34PM 6.4096 114.5444 358° North  Level Estimated
06:35PM 6.4634 114.5424 358° North  Level Estimated
06:36PM 6.5171 114.5404 358° North  Level Estimated
06:37PM 6.5709 114.5384 358° North  Level Estimated
06:38PM 6.6247 114.5364 358° North  Level Estimated
06:39PM 6.6784 114.5344 358° North  Level Estimated
06:40PM 6.7322 114.5324 358° North  Level Estimated
06:41PM 6.7860 114.5304 358° North  Level Estimated
06:42PM 6.8397 114.5284 358° North  Level Estimated
06:43PM 6.8935 114.5263 358° North  Level Estimated
06:44PM 6.9473 114.5243 358° North  Level Estimated
06:45PM 7.0011 114.5223 358° North  Level Estimated
06:46PM 7.0548 114.5203 358° North  Level Estimated
06:47PM 7.1086 114.5183 358° North  Level Estimated
06:48PM 7.1624 114.5163 358° North  Level Estimated
06:49PM 7.2161 114.5143 358° North  Level Estimated
06:50PM 7.2699 114.5123 358° North  Level Estimated
06:51PM 7.3237 114.5102 358° North  Level Estimated
06:52PM 7.3774 114.5082 358° North  Level Estimated
06:53PM 7.4312 114.5062 358° North  Level Estimated
06:54PM 7.4850 114.5042 358° North  Level Estimated
06:55PM 7.5388 114.5022 358° North  Level Estimated
06:56PM 7.5925 114.5001 358° North  Level Estimated
06:57PM 7.6463 114.4981 358° North  Level Estimated
06:58PM 7.7001 114.4961 358° North  Level Estimated
06:59PM 7.7538 114.4941 358° North  Level Estimated
07:00PM 7.8076 114.4921 358° North  Level Estimated
07:01PM 7.8614 114.4900 358° North  Level Estimated
07:02PM 7.9152 114.4880 358° North  Level Estimated
07:03PM 7.9689 114.4860 358° North  Level Estimated
07:04PM 8.0227 114.4840 358° North  Level Estimated
07:05PM 8.0765 114.4819 358° North  Level Estimated
07:06PM 8.1302 114.4799 358° North  Level Estimated
07:07PM 8.1840 114.4779 358° North  Level Estimated
07:08PM 8.2378 114.4759 358° North  Level Estimated
07:09PM 8.2915 114.4739 358° North  Level Estimated
07:10PM 8.3453 114.4718 358° North  Level Estimated
07:11PM 8.3991 114.4698 358° North  Level Estimated
07:12PM 8.4529 114.4678 358° North  Level Estimated
07:13PM 8.5066 114.4657 358° North  Level Estimated
07:14PM 8.5604 114.4637 358° North  Level Estimated
07:15PM 8.6142 114.4617 358° North  Level Estimated
07:16PM 8.6679 114.4596 358° North  Level Estimated
07:17PM 8.7217 114.4576 358° North  Level Estimated
07:18PM 8.7755 114.4556 358° North  Level Estimated
07:19PM 8.8292 114.4536 358° North  Level Estimated
07:20PM 8.8830 114.4515 358° North  Level Estimated
07:21PM 8.9368 114.4495 358° North  Level Estimated
07:22PM 8.9906 114.4475 358° North  Level Estimated
07:23PM 9.0443 114.4454 358° North  Level Estimated
07:24PM 9.0981 114.4434 358° North  Level Estimated
07:25PM 9.1519 114.4414 358° North  Level Estimated
07:26PM 9.2056 114.4393 358° North  Level Estimated
07:27PM 9.2594 114.4373 358° North  Level Estimated
07:28PM 9.3132 114.4353 358° North  Level Estimated
07:29PM 9.3669 114.4332 358° North  Level Estimated
07:30PM 9.4207 114.4312 358° North  Level Estimated
07:31PM 9.4745 114.4291 358° North  Level Estimated
07:32PM 9.5282 114.4271 358° North  Level Estimated
07:33PM 9.5820 114.4251 358° North  Level Estimated
07:34PM 9.6358 114.4230 358° North  Level Estimated
07:35PM 9.6896 114.4210 358° North  Level Estimated
07:36PM 9.7433 114.4189 358° North  Level Estimated
07:37PM 9.7971 114.4169 358° North  Level Estimated
07:38PM 9.8509 114.4149 358° North  Level Estimated
07:39PM 9.9046 114.4128 358° North  Level Estimated
07:40PM 9.9584 114.4108 358° North  Level Estimated
07:41PM 10.0122 114.4087 358° North  Level Estimated
07:42PM 10.0660 114.4067 358° North  Level Estimated
07:43PM 10.1197 114.4046 358° North  Level Estimated
07:44PM 10.1735 114.4026 358° North  Level Estimated
07:45PM 10.2273 114.4005 358° North  Level Estimated
07:46PM 10.2810 114.3985 358° North  Level Estimated
07:47PM 10.3348 114.3964 358° North  Level Estimated
07:48PM 10.3886 114.3944 358° North  Level Estimated
07:49PM 10.4423 114.3923 358° North  Level Estimated
07:50PM 10.4961 114.3903 358° North  Level Estimated
07:51PM 10.5499 114.3882 358° North  Level Estimated
07:52PM 10.6037 114.3862 358° North  Level Estimated
07:53PM 10.6574 114.3841 358° North  Level Estimated
07:54PM 10.7112 114.3821 358° North  Level Estimated
07:55PM 10.7650 114.3800 358° North  Level Estimated
07:56PM 10.8187 114.3780 358° North  Level Estimated
07:57PM 10.8725 114.3759 358° North  Level Estimated
07:58PM 10.9263 114.3738 358° North  Level Estimated
07:59PM 10.9800 114.3718 358° North  Level Estimated
08:00PM 11.0338 114.3697 358° North  Level Estimated
08:01PM 11.0876 114.3677 358° North  Level Estimated
08:02PM 11.1413 114.3656 358° North  Level Estimated
08:03PM 11.1951 114.3635 358° North  Level Estimated
08:04PM 11.2489 114.3615 358° North  Level Estimated
08:05PM 11.3027 114.3594 358° North  Level Estimated
08:06PM 11.3564 114.3574 358° North  Level Estimated
08:07PM 11.4102 114.3553 358° North  Level Estimated
08:08PM 11.4640 114.3532 358° North  Level Estimated
08:09PM 11.5177 114.3512 358° North  Level Estimated
08:10PM 11.5715 114.3491 358° North  Level Estimated
08:11PM 11.6253 114.3470 358° North  Level Estimated
08:12PM 11.6791 114.3450 358° North  Level Estimated
08:13PM 11.7328 114.3429 358° North  Level Estimated
08:14PM 11.7866 114.3408 358° North  Level Estimated
08:15PM 11.8404 114.3388 358° North  Level Estimated
08:16PM 11.8941 114.3367 358° North  Level Estimated
08:17PM 11.9479 114.3346 358° North  Level Estimated
08:18PM 12.0017 114.3326 358° North  Level Estimated
08:19PM 12.0554 114.3305 358° North  Level Estimated
08:20PM 12.1092 114.3284 358° North  Level Estimated
08:21PM 12.1630 114.3263 358° North  Level Estimated
08:22PM 12.2168 114.3242 358° North  Level Estimated
08:23PM 12.2705 114.3222 358° North  Level Estimated
08:24PM 12.3243 114.3201 358° North  Level Estimated
08:25PM 12.3781 114.3180 358° North  Level Estimated
08:26PM 12.4318 114.3159 358° North  Level Estimated
08:27PM 12.4856 114.3139 358° North  Level Estimated
08:28PM 12.5394 114.3118 358° North  Level Estimated
08:29PM 12.5931 114.3097 358° North  Level Estimated
08:30PM 12.6469 114.3076 358° North  Level Estimated
08:31PM 12.7007 114.3055 358° North  Level Estimated
08:32PM 12.7544 114.3035 358° North  Level Estimated
08:33PM 12.8082 114.3014 358° North  Level Estimated
08:34PM 12.8620 114.2993 358° North  Level Estimated
08:35PM 12.9158 114.2972 358° North  Level Estimated
08:36PM 12.9695 114.2951 358° North  Level Estimated
08:37PM 13.0233 114.2930 358° North  Level Estimated
08:38PM 13.0771 114.2909 358° North  Level Estimated
08:39PM 13.1308 114.2888 358° North  Level Estimated
08:40PM 13.1846 114.2867 358° North  Level Estimated
08:41PM 13.2384 114.2846 358° North  Level Estimated
08:42PM 13.2921 114.2825 358° North  Level Estimated
08:43PM 13.3459 114.2805 358° North  Level Estimated
08:44PM 13.3997 114.2784 358° North  Level Estimated
08:45PM 13.4535 114.2763 358° North  Level Estimated
08:46PM 13.5072 114.2742 358° North  Level Estimated
08:47PM 13.5610 114.2721 358° North  Level Estimated
08:48PM 13.6148 114.2700 358° North  Level Estimated
08:49PM 13.6685 114.2679 358° North  Level Estimated
08:50PM 13.7223 114.2658 358° North  Level Estimated
08:51PM 13.7761 114.2637 358° North  Level Estimated
08:52PM 13.8299 114.2616 358° North  Level Estimated
08:53PM 13.8836 114.2595 358° North  Level Estimated
08:54PM 13.9374 114.2573 358° North  Level Estimated
08:55PM 13.9912 114.2552 358° North  Level Estimated
08:56PM 14.0449 114.2531 358° North  Level Estimated
08:57PM 14.0987 114.2510 358° North  Level Estimated
08:58PM 14.1525 114.2489 358° North  Level Estimated
08:59PM 14.2062 114.2468 358° North  Level Estimated
09:00PM 14.2600 114.2447 358° North  Level Estimated
09:01PM 14.3138 114.2426 358° North  Level Estimated
09:02PM 14.3675 114.2405 358° North  Level Estimated
09:03PM 14.4213 114.2384 358° North  Level Estimated
09:04PM 14.4751 114.2362 358° North  Level Estimated
09:05PM 14.5289 114.2341 358° North  Level Estimated
09:06PM 14.5826 114.2320 358° North  Level Estimated
09:07PM 14.6364 114.2299 358° North  Level Estimated
09:08PM 14.6902 114.2278 358° North  Level Estimated
09:09PM 14.7439 114.2256 358° North  Level Estimated
09:10PM 14.7977 114.2235 358° North  Level Estimated
09:11PM 14.8515 114.2214 358° North  Level Estimated
09:12PM 14.9052 114.2193 358° North  Level Estimated
09:13PM 14.9590 114.2172 358° North  Level Estimated
09:14PM 15.0128 114.2150 358° North  Level Estimated
09:15PM 15.0666 114.2129 358° North  Level Estimated
09:16PM 15.1203 114.2108 358° North  Level Estimated
09:17PM 15.1741 114.2086 358° North  Level Estimated
09:18PM 15.2279 114.2065 358° North  Level Estimated
09:19PM 15.2816 114.2044 358° North  Level Estimated
09:20PM 15.3354 114.2022 358° North  Level Estimated
09:21PM 15.3892 114.2001 358° North  Level Estimated
09:22PM 15.4430 114.1980 358° North  Level Estimated
09:23PM 15.4967 114.1958 358° North  Level Estimated
09:24PM 15.5505 114.1937 358° North  Level Estimated
09:25PM 15.6043 114.1916 358° North  Level Estimated
09:26PM 15.6580 114.1894 358° North  Level Estimated
09:27PM 15.7118 114.1873 358° North  Level Estimated
09:28PM 15.7656 114.1852 358° North  Level Estimated
09:29PM 15.8193 114.1830 358° North  Level Estimated
09:30PM 15.8731 114.1809 358° North  Level Estimated
09:31PM 15.9269 114.1787 358° North  Level Estimated
09:32PM 15.9806 114.1766 358° North  Level Estimated
09:33PM 16.0344 114.1744 358° North  Level Estimated
09:34PM 16.0882 114.1723 358° North  Level Estimated
09:35PM 16.1420 114.1701 358° North  Level Estimated
09:36PM 16.1957 114.1680 358° North  Level Estimated
09:37PM 16.2495 114.1658 358° North  Level Estimated
09:38PM 16.3033 114.1637 358° North  Level Estimated
09:39PM 16.3570 114.1615 358° North  Level Estimated
09:40PM 16.4108 114.1594 358° North  Level Estimated
09:41PM 16.4646 114.1572 358° North  Level Estimated
09:42PM 16.5184 114.1551 358° North  Level Estimated
09:43PM 16.5721 114.1529 358° North  Level Estimated
09:44PM 16.6259 114.1507 358° North  Level Estimated
09:45PM 16.6797 114.1486 358° North  Level Estimated
09:46PM 16.7334 114.1464 358° North  Level Estimated
09:47PM 16.7872 114.1442 358° North  Level Estimated
09:48PM 16.8410 114.1421 358° North  Level Estimated
09:49PM 16.8947 114.1399 358° North  Level Estimated
09:50PM 16.9485 114.1377 358° North  Level Estimated
09:51PM 17.0023 114.1356 358° North  Level Estimated
09:52PM 17.0560 114.1334 358° North  Level Estimated
09:53PM 17.1098 114.1312 358° North  Level Estimated
09:54PM 17.1636 114.1291 358° North  Level Estimated
09:55PM 17.2174 114.1269 358° North  Level Estimated
09:56PM 17.2711 114.1247 358° North  Level Estimated
09:57PM 17.3249 114.1226 358° North  Level Estimated
09:58PM 17.3787 114.1204 358° North  Level Estimated
09:59PM 17.4324 114.1182 358° North  Level Estimated
10:00PM 17.4862 114.1160 358° North  Level Estimated
10:01PM 17.5400 114.1138 358° North  Level Estimated
10:02PM 17.5938 114.1116 358° North  Level Estimated
10:03PM 17.6475 114.1095 358° North  Level Estimated
10:04PM 17.7013 114.1073 358° North  Level Estimated
10:05PM 17.7551 114.1051 358° North  Level Estimated
10:06PM 17.8088 114.1029 358° North  Level Estimated
10:07PM 17.8626 114.1007 358° North  Level Estimated
10:08PM 17.9164 114.0985 358° North  Level Estimated
10:09PM 17.9701 114.0963 358° North  Level Estimated
10:10PM 18.0239 114.0941 358° North  Level Estimated
10:11PM 18.0777 114.0919 358° North  Level Estimated
10:12PM 18.1315 114.0898 358° North  Level Estimated
10:13PM 18.1852 114.0875 358° North  Level Estimated
10:14PM 18.2390 114.0854 358° North  Level Estimated
10:15PM 18.2928 114.0832 358° North  Level Estimated
10:16PM 18.3465 114.0809 358° North  Level Estimated
10:17PM 18.4003 114.0788 358° North  Level Estimated
10:18PM 18.4541 114.0766 358° North  Level Estimated
10:19PM 18.5078 114.0743 358° North  Level Estimated
10:20PM 18.5616 114.0721 358° North  Level Estimated
10:21PM 18.6154 114.0699 358° North  Level Estimated
10:22PM 18.6691 114.0677 358° North  Level Estimated
10:23PM 18.7229 114.0655 358° North  Level Estimated
10:24PM 18.7767 114.0633 358° North  Level Estimated
10:25PM 18.8305 114.0611 358° North  Level Estimated
10:26PM 18.8842 114.0589 358° North  Level Estimated
10:27PM 18.9380 114.0566 358° North  Level Estimated
10:28PM 18.9918 114.0544 358° North  Level Estimated
10:29PM 19.0455 114.0522 358° North  Level Estimated
10:30PM 19.0993 114.0500 358° North  Level Estimated
10:31PM 19.1531 114.0478 358° North  Level Estimated
10:32PM 19.2069 114.0455 358° North  Level Estimated
10:33PM 19.2606 114.0433 358° North  Level Estimated
10:34PM 19.3144 114.0411 358° North  Level Estimated
10:35PM 19.3682 114.0388 358° North  Level Estimated
10:36PM 19.4219 114.0366 358° North  Level Estimated
10:37PM 19.4757 114.0344 358° North  Level Estimated
10:38PM 19.5295 114.0322 358° North  Level Estimated
10:39PM 19.5832 114.0299 358° North  Level Estimated
10:40PM 19.6370 114.0277 358° North  Level Estimated
10:41PM 19.6908 114.0255 358° North  Level Estimated
10:42PM 19.7446 114.0232 358° North  Level Estimated
10:43PM 19.7983 114.0210 358° North  Level Estimated
10:44PM 19.8521 114.0187 358° North  Level Estimated
10:45PM 19.9059 114.0165 358° North  Level Estimated
10:46PM 19.9596 114.0143 358° North  Level Estimated
10:47PM 20.0134 114.0120 358° North  Level Estimated
10:48PM 20.0672 114.0098 358° North  Level Estimated
10:49PM 20.1209 114.0075 358° North  Level Estimated
10:50PM 20.1747 114.0052 358° North  Level Estimated
10:51PM 20.2285 114.0030 358° North  Level Estimated
10:52PM 20.2822 114.0007 358° North  Level Estimated
10:53PM 20.3360 113.9985 358° North  Level Estimated
10:54PM 20.3898 113.9962 358° North  Level Estimated
10:55PM 20.4436 113.9940 358° North  Level Estimated
10:56PM 20.4973 113.9917 358° North  Level Estimated
10:57PM 20.5511 113.9894 358° North  Level Estimated
10:58PM 20.6049 113.9872 358° North  Level Estimated
10:59PM 20.6586 113.9849 358° North  Level Estimated
11:00PM 20.7124 113.9827 358° North  Level Estimated
11:01PM 20.7662 113.9804 358° North  Level Estimated
11:02PM 20.8200 113.9781 358° North  Level Estimated
11:03PM 20.8737 113.9759 358° North  Level Estimated
11:04PM 20.9275 113.9736 358° North  Level Estimated
11:05PM 20.9813 113.9713 358° North  Level Estimated
11:06PM 21.0350 113.9690 358° North  Level Estimated
11:07PM 21.0888 113.9668 358° North  Level Estimated
11:08PM 21.1426 113.9645 358° North  Level Estimated
11:09PM 21.1963 113.9622 358° North  Level Estimated
11:10PM 21.2501 113.9599 358° North  Level Estimated
11:11PM 21.3039 113.9576 358° North  Level Estimated
11:12PM 21.3577 113.9553 358° North  Level Estimated
11:13PM 21.4114 113.9530 358° North  Level Estimated
11:14PM 21.4652 113.9508 358° North  Level Estimated
11:15PM 21.5190 113.9485 358° North  Level Estimated
11:16PM 21.5727 113.9462 358° North  Level Estimated
11:17PM 21.6265 113.9439 358° North  Level Estimated
11:18PM 21.6803 113.9416 358° North  Level Estimated
11:19PM 21.7340 113.9393 358° North  Level Estimated
11:20PM 21.7878 113.9370 358° North  Level Estimated
11:21PM 21.8416 113.9347 358° North  Level Estimated
11:22PM 21.8953 113.9324 358° North  Level Estimated
11:23PM 21.9491 113.9301 358° North  Level Estimated
11:24PM 22.0028 113.9278 358° North  Level Estimated
11:25PM 22.0566 113.9255 358° North  Level Estimated